Gove Airport

Airport
ICAO code: 
YPGV
IATA Code: 
GOV
Summary
ICAO Region: 
APAC
Territory: 
Location: 
Nhulunbuy, Northern Territory
Serving: 
Nhulunbuy
Elevation: 
205 ft
Coordinates: 
Aerial View: 
12° 16' 28.931" S, 136° 49' 34.172" E
Metar
Observation
YPGV 281500Z AUTO 00000KT 9999 // NCD 26/23 Q1008
Station
GOVE AIRPORT
Date/Time
2021-11-28 15:00:00
Wind direction
Wind speed
00 kts
Lowest cloud amount
no clouds detected
Temperature
26°C
Dew point
23°C
Humidity
83%
QNH
1008 hPa
Weather condition
n/a

Gove Airport is on the Gove Peninsula in the Northern Territory of Australia. It services the mining town of Nhulunbuy and several Aboriginal communities including Yirrkala.

Runways

Designator Length Width Surface Rops
13/31 2208 45 ASP Yes/Yes
Airport map: 
Aerial View: 

SKYbrary Partners:

Safety knowledge contributed by: